createdAt,value
2022-08-21T00:04:29.263Z,100242.94
2022-08-21T00:09:30.512Z,100249.56
2022-08-21T00:14:31.318Z,100256.34
2022-08-21T00:19:31.556Z,100242.22
2022-08-21T00:24:31.979Z,100248.81
2022-08-21T00:29:31.011Z,100240.34
2022-08-21T00:34:29.938Z,100239.16
2022-08-21T00:39:28.813Z,100238.13
2022-08-21T00:44:29.131Z,100227.69
2022-08-21T00:49:28.068Z,100219.94
2022-08-21T00:54:29.434Z,100227.06
2022-08-21T00:59:33.304Z,100215.84
2022-08-21T01:04:32.522Z,100206.63
2022-08-21T01:09:31.463Z,100207.88
2022-08-21T01:14:32.358Z,100199.66
2022-08-21T01:19:32.048Z,100183.47
2022-08-21T01:24:32.675Z,100188.44
2022-08-21T01:29:38.551Z,100172.03
2022-08-21T01:34:40.526Z,100164.25
2022-08-21T01:39:41.013Z,100164.91
2022-08-21T01:44:40.157Z,100162.22
2022-08-21T01:49:40.427Z,100164.50
2022-08-21T01:54:41.311Z,100163.25
2022-08-21T01:59:40.299Z,100162.16
2022-08-21T02:04:39.253Z,100155.53
2022-08-21T02:09:38.213Z,100141.78
2022-08-21T02:14:40.742Z,100147.44
2022-08-21T02:19:41.019Z,100129.34
2022-08-21T02:24:54.584Z,100135.56
2022-08-21T02:29:56.313Z,100124.78
2022-08-21T02:34:55.277Z,100121.25
2022-08-21T02:39:56.593Z,100134.56
2022-08-21T02:44:56.839Z,100123.97
2022-08-21T02:49:55.759Z,100124.16
2022-08-21T02:54:54.704Z,100117.69
2022-08-21T02:59:53.673Z,100120.38
2022-08-21T03:04:53.942Z,100119.56
2022-08-21T03:09:55.647Z,100127.63
2022-08-21T03:14:54.985Z,100118.91
2022-08-21T03:19:55.395Z,100111.38
2022-08-21T03:24:54.499Z,100121.28
2022-08-21T03:29:53.399Z,100118.16
2022-08-21T03:34:52.421Z,100112.66
2022-08-21T03:39:56.436Z,100103.47
2022-08-21T03:44:55.434Z,100103.94
2022-08-21T03:49:55.321Z,100100.69
2022-08-21T03:54:55.603Z,100092.78
2022-08-21T03:59:55.096Z,100094.19
2022-08-21T04:04:53.970Z,100095.44
2022-08-21T04:09:52.881Z,100100.56
2022-08-21T04:14:53.529Z,100125.97
2022-08-21T04:19:54.020Z,100162.75
2022-08-21T04:24:53.124Z,100165.16
2022-08-21T04:29:57.490Z,100201.13
2022-08-21T04:35:01.314Z,100182.41
2022-08-21T04:40:01.068Z,100195.72
2022-08-21T04:45:01.620Z,100177.59
2022-08-21T04:50:00.576Z,100192.22
2022-08-21T04:54:59.741Z,100187.63
2022-08-21T05:00:00.564Z,100176.16
2022-08-21T05:05:02.433Z,100199.91
2022-08-21T05:10:02.562Z,100193.56
2022-08-21T05:15:01.760Z,100200.28
2022-08-21T05:20:02.974Z,100206.97
2022-08-21T05:25:02.066Z,100198.34
2022-08-21T05:30:03.745Z,100204.75
2022-08-21T05:35:04.412Z,100206.50
2022-08-21T05:40:21.431Z,100212.00
2022-08-21T05:45:41.238Z,100213.72
2022-08-21T05:50:43.573Z,100210.66
2022-08-21T05:55:46.136Z,100202.22
2022-08-21T06:00:47.776Z,100199.78
2022-08-21T06:05:47.988Z,100199.03
2022-08-21T06:10:47.537Z,100200.06
2022-08-21T06:15:47.128Z,100208.28
2022-08-21T06:20:47.511Z,100208.13
2022-08-21T06:25:47.413Z,100198.84
2022-08-21T06:30:46.462Z,100207.91
2022-08-21T06:35:45.457Z,100211.28
2022-08-21T06:40:47.647Z,100213.84
2022-08-21T06:45:47.173Z,100215.31
2022-08-21T06:50:46.041Z,100207.22
2022-08-21T06:55:46.389Z,100215.34
2022-08-21T07:00:49.049Z,100210.59
2022-08-21T07:05:47.953Z,100215.78
2022-08-21T07:10:49.726Z,100206.81
2022-08-21T07:15:49.060Z,100205.91
2022-08-21T07:20:49.181Z,100210.59
2022-08-21T07:25:49.946Z,100199.88
2022-08-21T07:30:53.094Z,100194.13
2022-08-21T07:35:52.214Z,100181.72
2022-08-21T07:40:55.287Z,100185.78
2022-08-21T07:45:55.788Z,100176.53
2022-08-21T07:50:57.668Z,100168.75
2022-08-21T07:56:00.959Z,100166.00
2022-08-21T08:01:00.562Z,100162.84
2022-08-21T08:05:59.615Z,100166.59
2022-08-21T08:11:02.630Z,100157.13
2022-08-21T08:16:01.698Z,100152.03
2022-08-21T08:21:00.880Z,100145.53
2022-08-21T08:26:03.620Z,100129.34
2022-08-21T08:31:03.214Z,100137.75
2022-08-21T08:36:07.059Z,100129.38
2022-08-21T08:41:14.225Z,100130.28
2022-08-21T08:46:18.711Z,100130.63
2022-08-21T08:51:23.750Z,100131.34
2022-08-21T08:56:30.535Z,100116.13
2022-08-21T09:01:30.052Z,100120.88
2022-08-21T09:06:43.345Z,100111.50
2022-08-21T09:11:50.792Z,100103.31
2022-08-21T09:16:58.951Z,100100.81
2022-08-21T09:22:08.550Z,100095.06
2022-08-21T09:27:11.164Z,100094.25
2022-08-21T09:32:19.521Z,100090.38
2022-08-21T09:37:19.948Z,100066.97
2022-08-21T09:42:27.443Z,100066.75
2022-08-21T09:47:28.971Z,100061.16
2022-08-21T09:52:28.032Z,100051.50
2022-08-21T09:57:50.398Z,100045.16
2022-08-21T10:02:49.708Z,100042.53
2022-08-21T10:07:49.105Z,100030.88
2022-08-21T10:12:56.796Z,100025.91
2022-08-21T10:18:06.579Z,100012.03
2022-08-21T10:23:23.117Z,99998.56
2022-08-21T10:28:32.112Z,100005.63
2022-08-21T10:33:45.212Z,99998.47
2022-08-21T10:39:25.300Z,99995.84
2022-08-21T10:44:32.525Z,99987.19
2022-08-21T10:49:47.106Z,99981.56
2022-08-21T10:54:54.553Z,99977.25
2022-08-21T10:59:59.713Z,99976.66
2022-08-21T11:05:03.879Z,99957.09
2022-08-21T11:10:15.023Z,99956.63
2022-08-21T11:15:30.065Z,99947.03
2022-08-21T11:20:42.721Z,99938.41
2022-08-21T11:25:51.302Z,99921.88
2022-08-21T11:31:02.376Z,99919.28
2022-08-21T11:36:12.606Z,99902.00
2022-08-21T11:41:24.952Z,99894.41
2022-08-21T11:46:33.334Z,99879.31
2022-08-21T11:51:38.814Z,99881.25
2022-08-21T11:56:47.998Z,99877.31
2022-08-21T12:01:59.948Z,99867.09
2022-08-21T12:07:12.112Z,99862.16
2022-08-21T12:12:26.497Z,99864.38
2022-08-21T12:17:38.991Z,99868.91
2022-08-21T12:22:41.832Z,99867.00
2022-08-21T12:27:48.993Z,99853.03
2022-08-21T12:32:59.760Z,99845.81
2022-08-21T12:38:04.608Z,99848.88
2022-08-21T12:43:06.310Z,99856.44
2022-08-21T12:48:12.995Z,99846.25
2022-08-21T12:53:20.924Z,99843.31
2022-08-21T12:58:25.475Z,99857.44
2022-08-21T13:03:26.584Z,99857.47
2022-08-21T13:08:28.477Z,99884.53
2022-08-21T13:13:29.586Z,99890.84
2022-08-21T13:18:33.969Z,99896.19
2022-08-21T13:23:33.725Z,99894.38
2022-08-21T13:28:39.313Z,99909.16
2022-08-21T13:33:41.574Z,99912.50
2022-08-21T13:38:43.909Z,99895.28
2022-08-21T13:43:48.121Z,99902.25
2022-08-21T13:48:48.745Z,99909.47
2022-08-21T13:53:53.235Z,99924.53
2022-08-21T13:58:52.196Z,99920.91
2022-08-21T14:03:58.328Z,99917.81
2022-08-21T14:09:01.572Z,99927.34
2022-08-21T14:14:04.987Z,99937.50
2022-08-21T14:19:20.096Z,99936.84
2022-08-21T14:24:29.355Z,99917.81
2022-08-21T14:29:33.191Z,99911.56
2022-08-21T14:34:36.419Z,99899.97
2022-08-21T14:39:35.553Z,99919.59
2022-08-21T14:45:10.081Z,99921.09
2022-08-21T14:50:14.465Z,99910.78
2022-08-21T14:55:16.615Z,99904.31
2022-08-21T15:01:13.338Z,99901.66
2022-08-21T15:06:13.902Z,99905.16
2022-08-21T15:11:42.522Z,99895.06
2022-08-21T15:16:37.960Z,99888.13
2022-08-21T15:21:41.347Z,99882.94
2022-08-21T15:26:40.557Z,99873.38
2022-08-21T15:31:53.669Z,99869.81
2022-08-21T15:36:56.271Z,99857.81
2022-08-21T15:41:56.243Z,99868.53
2022-08-21T15:46:55.347Z,99885.72
2022-08-21T15:52:05.726Z,99902.78
2022-08-21T15:57:10.024Z,99897.44
2022-08-21T16:02:13.880Z,99879.44
2022-08-21T16:07:19.984Z,99871.59
2022-08-21T16:12:29.515Z,99865.88
2022-08-21T16:17:32.077Z,99874.59
2022-08-21T16:22:45.572Z,99889.38
2022-08-21T16:27:52.625Z,99895.09
2022-08-21T16:32:55.733Z,99907.47
2022-08-21T16:37:56.478Z,99903.44
2022-08-21T16:42:56.395Z,99893.72
2022-08-21T16:47:55.598Z,99881.38
2022-08-21T16:52:56.023Z,99880.56
2022-08-21T16:57:55.950Z,99874.16
2022-08-21T17:02:59.358Z,99874.59
2022-08-21T17:08:00.248Z,99888.00
2022-08-21T17:13:01.622Z,99917.66
2022-08-21T17:18:03.139Z,99936.00
2022-08-21T17:23:03.822Z,99962.78
2022-08-21T17:28:04.161Z,99990.47
2022-08-21T17:33:03.720Z,100000.38
2022-08-21T17:38:04.609Z,100034.38
2022-08-21T17:43:04.358Z,100034.47
2022-08-21T17:48:03.548Z,100042.19
2022-08-21T17:53:04.103Z,100051.13
2022-08-21T17:58:09.871Z,100061.34
2022-08-21T18:03:15.173Z,100069.47
2022-08-21T18:08:51.450Z,100070.72
2022-08-21T18:14:03.866Z,100067.16
2022-08-21T18:19:10.015Z,100069.84
2022-08-21T18:24:10.320Z,100085.69
2022-08-21T18:29:11.499Z,100084.44
2022-08-21T18:34:20.065Z,100082.97
2022-08-21T18:39:37.994Z,100084.41
2022-08-21T18:44:37.255Z,100062.34
2022-08-21T18:49:36.339Z,100047.81
2022-08-21T18:54:37.316Z,100022.00
2022-08-21T18:59:40.335Z,100031.59
2022-08-21T19:04:44.809Z,100039.50
2022-08-21T19:10:01.801Z,100031.16
2022-08-21T19:15:05.703Z,100019.94
2022-08-21T19:25:37.034Z,100012.66
2022-08-21T19:30:39.883Z,99999.09
2022-08-21T19:35:39.752Z,99996.19
2022-08-21T19:40:40.428Z,99993.47
2022-08-21T19:45:40.332Z,99993.69
2022-08-21T19:50:40.059Z,99974.94
2022-08-21T19:55:45.891Z,99984.75
2022-08-21T20:00:47.481Z,99988.28
2022-08-21T20:05:46.573Z,99996.19
2022-08-21T20:10:46.923Z,99998.44
2022-08-21T20:15:49.061Z,99986.81
2022-08-21T20:20:48.774Z,99980.38
2022-08-21T20:25:52.711Z,99965.88
2022-08-21T20:30:52.025Z,99970.63
2022-08-21T20:35:52.392Z,99961.28
2022-08-21T20:40:54.172Z,99967.31
2022-08-21T20:45:53.665Z,99968.69
2022-08-21T20:50:58.683Z,99966.00
2022-08-21T20:56:00.525Z,99963.28
2022-08-21T21:01:02.596Z,99967.16
2022-08-21T21:06:07.852Z,99968.81
2022-08-21T21:11:14.463Z,99963.78
2022-08-21T21:16:19.140Z,99967.25
2022-08-21T21:21:32.467Z,99972.22
2022-08-21T21:26:38.200Z,99974.28
2022-08-21T21:31:49.345Z,99974.03
2022-08-21T21:36:56.454Z,99979.41
2022-08-21T21:42:05.500Z,99994.91
2022-08-21T21:47:11.144Z,100012.09
2022-08-21T21:52:31.451Z,100021.38
2022-08-21T21:57:52.727Z,100028.75
2022-08-21T22:03:02.787Z,100037.25
2022-08-21T22:08:08.202Z,100049.06
2022-08-21T22:13:26.124Z,100044.50
2022-08-21T22:18:29.979Z,100036.69
2022-08-21T22:23:31.458Z,100036.91
2022-08-21T22:28:33.399Z,100044.56
2022-08-21T22:33:33.985Z,100042.56
2022-08-21T22:38:37.249Z,100062.72
2022-08-21T22:43:52.136Z,100089.91
2022-08-21T22:48:54.971Z,100082.72
2022-08-21T22:53:56.421Z,100087.47
2022-08-21T22:59:00.843Z,100094.53
2022-08-21T23:04:12.311Z,100101.38
2022-08-21T23:09:18.297Z,100104.47
2022-08-21T23:14:18.736Z,100093.75
2022-08-21T23:19:37.941Z,100097.50
2022-08-21T23:25:01.312Z,100101.22
2022-08-21T23:30:07.336Z,100091.00
2022-08-21T23:35:16.237Z,100090.69
2022-08-21T23:40:35.677Z,100112.56
2022-08-21T23:45:48.756Z,100114.69
2022-08-21T23:50:54.208Z,100117.63
2022-08-21T23:56:12.875Z,100112.63
